createdAt,value
2018-01-15T00:01:58.573Z,29.57
2018-01-15T00:04:25.172Z,21.33
2018-01-15T00:06:51.775Z,23.13
2018-01-15T00:09:18.380Z,22.03
2018-01-15T00:11:44.986Z,21.80
2018-01-15T00:14:11.583Z,26.93
2018-01-15T00:16:38.186Z,21.37
2018-01-15T00:19:04.794Z,25.70
2018-01-15T00:21:31.739Z,21.90
2018-01-15T00:23:58.335Z,22.80
2018-01-15T00:26:24.931Z,20.40
2018-01-15T00:28:51.540Z,20.03
2018-01-15T00:31:18.137Z,22.93
2018-01-15T00:33:44.749Z,24.63
2018-01-15T00:36:11.367Z,21.73
2018-01-15T00:38:37.967Z,18.40
2018-01-15T00:41:04.571Z,20.57
2018-01-15T00:43:31.171Z,21.20
2018-01-15T00:45:57.799Z,22.07
2018-01-15T00:48:24.404Z,21.50
2018-01-15T00:50:51.007Z,23.37
2018-01-15T00:53:17.626Z,19.13
2018-01-15T00:55:44.598Z,19.70
2018-01-15T00:58:11.504Z,19.30
2018-01-15T01:00:38.163Z,20.50
2018-01-15T01:03:04.703Z,22.50
2018-01-15T01:05:31.347Z,20.53
2018-01-15T01:07:57.951Z,19.10
2018-01-15T01:10:24.577Z,18.70
2018-01-15T01:12:51.179Z,19.10
2018-01-15T01:15:17.784Z,18.20
2018-01-15T01:17:44.444Z,18.70
2018-01-15T01:20:11.041Z,18.77
2018-01-15T01:22:38.000Z,20.27
2018-01-15T01:25:04.602Z,20.10
2018-01-15T01:27:31.192Z,19.23
2018-01-15T01:29:57.795Z,17.50
2018-01-15T01:32:24.387Z,18.30
2018-01-15T01:34:51.107Z,19.00
2018-01-15T01:37:17.687Z,18.77
2018-01-15T01:39:44.320Z,19.97
2018-01-15T01:42:10.925Z,22.27
2018-01-15T01:44:37.521Z,19.30
2018-01-15T01:47:04.123Z,19.13
2018-01-15T01:49:30.804Z,21.60
2018-01-15T01:51:57.419Z,17.33
2018-01-15T01:54:24.016Z,18.57
2018-01-15T01:56:50.627Z,17.10
2018-01-15T01:59:17.227Z,18.10
2018-01-15T02:01:43.827Z,18.80
2018-01-15T02:04:10.472Z,19.03
2018-01-15T02:06:37.069Z,17.13
2018-01-15T02:09:03.691Z,18.53
2018-01-15T02:11:30.286Z,18.00
2018-01-15T02:13:56.904Z,22.33
2018-01-15T02:16:23.504Z,19.40
2018-01-15T02:18:50.115Z,18.13
2018-01-15T02:21:16.720Z,17.53
2018-01-15T02:23:43.323Z,20.00
2018-01-15T02:26:09.928Z,17.13
2018-01-15T02:28:36.523Z,19.30
2018-01-15T02:31:03.123Z,17.90
2018-01-15T02:33:29.732Z,18.63
2018-01-15T02:35:56.338Z,20.00
2018-01-15T02:38:22.943Z,20.03
2018-01-15T02:40:49.535Z,19.50
2018-01-15T02:43:16.151Z,20.23
2018-01-15T02:45:42.744Z,18.50
2018-01-15T02:48:09.343Z,18.30
2018-01-15T02:50:35.964Z,18.03
2018-01-15T02:53:02.570Z,17.97
2018-01-15T02:55:29.172Z,17.77
2018-01-15T02:57:55.825Z,20.03
2018-01-15T03:00:22.428Z,16.80
2018-01-15T03:02:49.039Z,19.33
2018-01-15T03:05:15.628Z,18.93
2018-01-15T03:07:42.231Z,19.83
2018-01-15T03:10:08.832Z,18.73
2018-01-15T03:12:35.429Z,18.50
2018-01-15T03:15:02.027Z,19.90
2018-01-15T03:17:28.628Z,20.00
2018-01-15T03:19:55.232Z,20.37
2018-01-15T03:22:21.840Z,19.43
2018-01-15T03:24:48.535Z,20.13
2018-01-15T03:27:15.115Z,19.00
2018-01-15T03:29:41.721Z,18.83
2018-01-15T03:32:08.317Z,20.40
2018-01-15T03:34:34.923Z,18.20
2018-01-15T03:37:01.523Z,20.80
2018-01-15T03:39:28.134Z,20.80
2018-01-15T03:41:54.740Z,19.30
2018-01-15T03:44:21.348Z,19.97
2018-01-15T03:46:47.952Z,18.00
2018-01-15T03:49:14.555Z,22.77
2018-01-15T03:51:41.160Z,21.93
2018-01-15T03:54:07.755Z,18.57
2018-01-15T03:56:34.364Z,18.67
2018-01-15T03:59:00.990Z,21.20
2018-01-15T04:01:27.607Z,19.67
2018-01-15T04:03:54.211Z,21.63
2018-01-15T04:06:20.808Z,18.33
2018-01-15T04:08:47.407Z,20.70
2018-01-15T04:11:14.008Z,17.10
2018-01-15T04:13:40.723Z,20.40
2018-01-15T04:16:07.303Z,19.83
2018-01-15T04:18:34.024Z,18.50
2018-01-15T04:21:00.615Z,20.17
2018-01-15T04:23:27.227Z,20.97
2018-01-15T04:25:53.824Z,20.67
2018-01-15T04:28:20.424Z,19.93
2018-01-15T04:30:47.036Z,21.70
2018-01-15T04:33:13.640Z,20.17
2018-01-15T04:35:40.247Z,18.13
2018-01-15T04:38:06.843Z,20.40
2018-01-15T04:40:33.448Z,18.63
2018-01-15T04:43:00.043Z,18.73
2018-01-15T04:45:26.664Z,20.53
2018-01-15T04:47:53.264Z,22.57
2018-01-15T04:50:19.887Z,21.60
2018-01-15T04:52:46.499Z,17.47
2018-01-15T04:55:13.100Z,19.53
2018-01-15T04:57:39.703Z,23.23
2018-01-15T05:00:06.299Z,21.13
2018-01-15T05:02:32.904Z,17.87
2018-01-15T05:04:59.507Z,21.40
2018-01-15T05:07:26.564Z,22.33
2018-01-15T05:09:53.169Z,23.23
2018-01-15T05:12:19.795Z,18.10
2018-01-15T05:14:46.388Z,20.27
2018-01-15T05:17:12.991Z,22.10
2018-01-15T05:19:39.599Z,22.93
2018-01-15T05:22:06.199Z,20.70
2018-01-15T05:24:32.803Z,23.50
2018-01-15T05:26:59.403Z,21.63
2018-01-15T05:29:26.057Z,20.50
2018-01-15T05:31:52.655Z,20.53
2018-01-15T05:34:19.259Z,23.43
2018-01-15T05:36:45.871Z,23.00
2018-01-15T05:39:12.467Z,19.77
2018-01-15T05:41:39.075Z,23.10
2018-01-15T05:44:05.675Z,22.43
2018-01-15T05:46:32.280Z,22.83
2018-01-15T05:48:58.879Z,22.70
2018-01-15T05:51:25.480Z,20.20
2018-01-15T05:53:52.084Z,18.83
2018-01-15T05:56:18.680Z,22.50
2018-01-15T05:58:45.299Z,20.27
2018-01-15T06:01:11.899Z,22.77
2018-01-15T06:03:38.504Z,19.67
2018-01-15T06:06:05.213Z,25.87
2018-01-15T06:08:31.803Z,21.17
2018-01-15T06:10:58.407Z,20.23
2018-01-15T06:13:25.011Z,23.40
2018-01-15T06:15:51.623Z,21.60
2018-01-15T06:18:18.227Z,21.10
2018-01-15T06:20:44.831Z,20.90
2018-01-15T06:23:11.431Z,20.83
2018-01-15T06:25:38.039Z,23.87
2018-01-15T06:28:04.639Z,24.17
2018-01-15T06:30:31.306Z,21.47
2018-01-15T06:32:57.896Z,22.73
2018-01-15T06:35:24.491Z,25.40
2018-01-15T06:37:51.096Z,24.13
2018-01-15T06:40:17.695Z,25.60
2018-01-15T06:42:44.299Z,22.77
2018-01-15T06:45:10.903Z,24.90
2018-01-15T06:47:37.503Z,21.90
2018-01-15T06:50:04.172Z,25.47
2018-01-15T06:52:30.775Z,24.00
2018-01-15T06:54:57.380Z,25.10
2018-01-15T06:57:23.971Z,21.20
2018-01-15T06:59:50.571Z,20.87
2018-01-15T07:02:17.177Z,21.40
2018-01-15T07:04:43.780Z,21.83
2018-01-15T07:07:10.376Z,23.87
2018-01-15T07:09:36.996Z,20.30
2018-01-15T07:12:03.599Z,19.43
2018-01-15T07:14:30.208Z,24.13
2018-01-15T07:16:56.807Z,23.47
2018-01-15T07:19:23.433Z,23.50
2018-01-15T07:21:50.020Z,22.10
2018-01-15T07:24:16.617Z,20.03
2018-01-15T07:26:43.243Z,26.20
2018-01-15T07:29:09.827Z,22.10
2018-01-15T07:31:36.431Z,25.30
2018-01-15T07:34:03.027Z,24.80
2018-01-15T07:36:29.640Z,23.00
2018-01-15T07:38:56.235Z,28.63
2018-01-15T07:41:22.837Z,22.13
2018-01-15T07:43:49.439Z,23.03
2018-01-15T07:46:16.047Z,23.80
2018-01-15T07:48:42.653Z,24.27
2018-01-15T07:51:09.338Z,30.67
2018-01-15T07:53:35.915Z,25.30
2018-01-15T07:56:02.516Z,23.73
2018-01-15T07:58:29.995Z,25.80
2018-01-15T08:00:56.600Z,23.10
2018-01-15T08:03:23.203Z,24.63
2018-01-15T08:05:50.111Z,22.80
2018-01-15T08:08:16.706Z,23.00
2018-01-15T08:10:43.318Z,23.67
2018-01-15T08:13:09.922Z,22.20
2018-01-15T08:15:36.522Z,25.70
2018-01-15T08:18:03.128Z,26.07
2018-01-15T08:20:29.727Z,23.03
2018-01-15T08:22:56.339Z,25.63
2018-01-15T08:25:22.935Z,23.43
2018-01-15T08:27:49.538Z,28.53
2018-01-15T08:30:16.140Z,22.30
2018-01-15T08:32:42.744Z,22.17
2018-01-15T08:35:09.349Z,23.00
2018-01-15T08:37:35.951Z,23.30
2018-01-15T08:40:02.560Z,22.13
2018-01-15T08:42:29.183Z,22.70
2018-01-15T08:44:55.784Z,23.17
2018-01-15T08:47:22.391Z,25.67
2018-01-15T08:49:48.992Z,22.43
2018-01-15T08:52:15.603Z,21.57
2018-01-15T08:54:43.251Z,22.40
2018-01-15T08:57:09.868Z,21.17
2018-01-15T08:59:37.047Z,23.57
2018-01-15T09:02:03.651Z,22.63
2018-01-15T09:04:30.266Z,21.10
2018-01-15T09:06:56.888Z,23.10
2018-01-15T09:09:23.480Z,28.33
2018-01-15T09:11:50.079Z,26.13
2018-01-15T09:14:16.689Z,26.13
2018-01-15T09:16:44.215Z,25.63
2018-01-15T09:19:10.812Z,23.43
2018-01-15T09:21:37.423Z,23.07
2018-01-15T09:24:04.023Z,25.90
2018-01-15T09:26:30.944Z,23.83
2018-01-15T09:28:57.549Z,24.73
2018-01-15T09:31:24.779Z,28.20
2018-01-15T09:33:51.383Z,23.50
2018-01-15T09:36:17.989Z,25.40
2018-01-15T09:38:44.600Z,22.60
2018-01-15T09:41:11.201Z,24.70
2018-01-15T09:43:37.829Z,26.37
2018-01-15T09:46:04.427Z,24.67
2018-01-15T09:48:31.068Z,23.10
2018-01-15T09:50:57.718Z,21.93
2018-01-15T09:53:24.308Z,24.23
2018-01-15T09:55:50.920Z,25.70
2018-01-15T09:58:17.524Z,24.20
2018-01-15T10:00:44.139Z,22.43
2018-01-15T10:03:10.739Z,24.80
2018-01-15T10:05:37.349Z,21.87
2018-01-15T10:08:03.944Z,24.07
2018-01-15T10:10:30.556Z,22.17
2018-01-15T10:12:57.151Z,21.73
2018-01-15T10:15:23.756Z,23.00
2018-01-15T10:17:50.359Z,23.37
2018-01-15T10:20:16.958Z,20.97
2018-01-15T10:22:43.564Z,21.47
2018-01-15T10:25:10.163Z,22.23
2018-01-15T10:27:36.776Z,21.63
2018-01-15T10:30:03.383Z,20.97
2018-01-15T10:32:29.993Z,22.43
2018-01-15T10:34:56.595Z,22.33
2018-01-15T10:37:23.212Z,20.07
2018-01-15T10:39:49.820Z,27.23
2018-01-15T10:42:16.447Z,20.40
2018-01-15T10:44:43.035Z,22.60
2018-01-15T10:47:09.636Z,22.90
2018-01-15T10:49:36.241Z,24.53
2018-01-15T10:52:02.843Z,24.17
2018-01-15T10:54:29.443Z,22.83
2018-01-15T10:56:56.054Z,24.23
2018-01-15T10:59:22.655Z,23.53
2018-01-15T11:01:49.264Z,20.57
2018-01-15T11:04:15.868Z,22.57
2018-01-15T11:06:42.468Z,24.67
2018-01-15T11:09:09.073Z,24.50
2018-01-15T11:11:35.676Z,26.33
2018-01-15T11:14:02.292Z,23.37
2018-01-15T11:16:28.892Z,25.33
2018-01-15T11:18:55.496Z,23.57
2018-01-15T11:21:22.100Z,24.17
2018-01-15T11:23:48.699Z,25.33
2018-01-15T11:26:15.326Z,23.90
2018-01-15T11:28:41.914Z,24.70
2018-01-15T11:31:08.855Z,22.70
2018-01-15T11:33:35.467Z,22.17
2018-01-15T11:36:02.067Z,22.93
2018-01-15T11:38:28.680Z,26.67
2018-01-15T11:40:55.283Z,22.57
2018-01-15T11:43:21.887Z,22.73
2018-01-15T11:45:48.488Z,21.73
2018-01-15T11:48:15.438Z,28.13
2018-01-15T11:50:44.892Z,26.77
2018-01-15T11:53:11.491Z,22.47
2018-01-15T11:55:38.095Z,23.37
2018-01-15T11:58:04.695Z,23.87
2018-01-15T12:00:31.299Z,24.97
2018-01-15T12:02:57.903Z,25.63
2018-01-15T12:05:24.511Z,23.40
2018-01-15T12:07:51.155Z,23.30
2018-01-15T12:10:17.752Z,23.90
2018-01-15T12:12:44.368Z,23.27
2018-01-15T12:15:10.964Z,27.80
2018-01-15T12:17:37.571Z,21.97
2018-01-15T12:20:04.172Z,22.83
2018-01-15T12:22:30.776Z,20.50
2018-01-15T12:24:57.477Z,21.93
2018-01-15T12:27:24.059Z,25.23
2018-01-15T12:29:50.672Z,18.57
2018-01-15T12:32:17.290Z,22.40
2018-01-15T12:34:43.896Z,22.73
2018-01-15T12:37:10.496Z,20.03
2018-01-15T12:39:37.428Z,20.57
2018-01-15T12:42:04.032Z,23.90
2018-01-15T12:44:30.625Z,20.13
2018-01-15T12:46:57.231Z,23.60
2018-01-15T12:49:23.827Z,18.23
2018-01-15T12:51:50.448Z,20.97
2018-01-15T12:54:17.049Z,21.30
2018-01-15T12:56:43.828Z,17.23
2018-01-15T12:59:10.415Z,20.17
2018-01-15T13:01:37.024Z,18.80
2018-01-15T13:04:03.654Z,18.53
2018-01-15T13:06:36.051Z,19.00
2018-01-15T13:09:02.656Z,19.80
2018-01-15T13:11:29.256Z,16.70
2018-01-15T13:13:55.863Z,17.57
2018-01-15T13:16:22.463Z,18.00
2018-01-15T13:18:49.068Z,15.40
2018-01-15T13:21:15.673Z,15.93
2018-01-15T13:23:42.283Z,14.97
2018-01-15T13:26:08.927Z,16.47
2018-01-15T13:28:35.527Z,14.80
2018-01-15T13:31:02.135Z,19.10
2018-01-15T13:33:28.732Z,15.67
2018-01-15T13:35:55.343Z,20.03
2018-01-15T13:38:21.944Z,14.60
2018-01-15T13:40:48.540Z,13.27
2018-01-15T13:43:15.216Z,13.57
2018-01-15T13:45:41.820Z,14.73
2018-01-15T13:48:08.452Z,12.77
2018-01-15T13:50:35.056Z,12.77
2018-01-15T13:53:01.673Z,9.10
2018-01-15T13:55:28.271Z,12.40
2018-01-15T13:57:54.872Z,10.23
2018-01-15T14:00:21.467Z,8.83
2018-01-15T14:02:48.075Z,12.20
2018-01-15T14:05:14.681Z,10.07
2018-01-15T14:07:41.303Z,9.90
2018-01-15T14:10:07.896Z,11.00
2018-01-15T14:12:34.516Z,10.93
2018-01-15T14:15:01.119Z,14.03
2018-01-15T14:17:27.733Z,11.83
2018-01-15T14:19:54.377Z,11.90
2018-01-15T14:22:20.967Z,9.83
2018-01-15T14:24:47.611Z,10.73
2018-01-15T14:27:14.196Z,11.83
2018-01-15T14:29:40.799Z,12.20
2018-01-15T14:32:07.398Z,10.77
2018-01-15T14:34:33.983Z,8.03
2018-01-15T14:37:00.574Z,8.50
2018-01-15T14:39:27.185Z,9.30
2018-01-15T14:41:56.584Z,9.00
2018-01-15T14:44:23.416Z,13.13
2018-01-15T14:46:50.003Z,8.80
2018-01-15T14:49:16.600Z,12.23
2018-01-15T14:54:16.328Z,7.70
2018-01-15T14:56:42.923Z,9.10
2018-01-15T14:59:09.519Z,7.20
2018-01-15T15:01:36.123Z,8.10
2018-01-15T15:04:02.708Z,7.37
2018-01-15T15:06:29.303Z,9.23
2018-01-15T15:08:55.899Z,9.03
2018-01-15T15:11:22.527Z,13.10
2018-01-15T15:13:49.151Z,12.67
2018-01-15T15:16:15.732Z,7.73
2018-01-15T15:18:42.337Z,8.07
2018-01-15T15:21:08.927Z,10.33
2018-01-15T15:23:35.529Z,11.00
2018-01-15T15:26:02.214Z,11.70
2018-01-15T15:28:28.796Z,9.50
2018-01-15T15:30:55.392Z,9.93
2018-01-15T15:33:21.983Z,13.97
2018-01-15T15:35:48.831Z,11.13
2018-01-15T15:38:15.431Z,19.17
2018-01-15T15:40:42.026Z,14.13
2018-01-15T15:43:08.636Z,10.13
2018-01-15T15:45:35.226Z,12.03
2018-01-15T15:48:01.832Z,12.27
2018-01-15T15:50:28.429Z,13.17
2018-01-15T15:52:55.044Z,12.27
2018-01-15T15:55:21.644Z,12.10
2018-01-15T15:57:48.243Z,12.10
2018-01-15T16:00:15.576Z,12.17
2018-01-15T16:02:42.200Z,15.27
2018-01-15T16:05:08.803Z,13.70
2018-01-15T16:07:35.399Z,12.13
2018-01-15T16:10:02.041Z,11.70
2018-01-15T16:12:28.627Z,8.63
2018-01-15T16:14:55.225Z,8.90
2018-01-15T16:17:21.823Z,8.73
2018-01-15T16:19:48.443Z,9.60
2018-01-15T16:22:21.271Z,10.53
2018-01-15T16:24:47.873Z,7.47
2018-01-15T16:27:14.467Z,7.63
2018-01-15T16:29:41.067Z,6.50
2018-01-15T16:32:07.667Z,6.40
2018-01-15T16:34:34.256Z,7.87
2018-01-15T16:37:00.852Z,4.97
2018-01-15T16:39:27.452Z,4.67
2018-01-15T16:41:54.051Z,4.47
2018-01-15T16:44:20.647Z,4.53
2018-01-15T16:46:47.285Z,6.00
2018-01-15T16:49:13.872Z,4.20
2018-01-15T16:51:40.483Z,3.73
2018-01-15T16:54:07.072Z,3.50
2018-01-15T16:56:33.723Z,4.00
2018-01-15T16:59:00.272Z,2.80
2018-01-15T17:01:26.872Z,2.90
2018-01-15T17:03:53.492Z,2.57
2018-01-15T17:06:20.072Z,3.90
2018-01-15T17:08:46.683Z,12.97
2018-01-15T17:11:13.271Z,10.50
2018-01-15T17:13:40.111Z,3.93
2018-01-15T17:16:06.709Z,3.57
2018-01-15T17:18:33.299Z,3.83
2018-01-15T17:20:59.894Z,2.50
2018-01-15T17:23:26.483Z,2.03
2018-01-15T17:25:53.083Z,2.17
2018-01-15T17:28:19.680Z,2.00
2018-01-15T17:30:46.291Z,2.00
2018-01-15T17:33:12.876Z,2.67
2018-01-15T17:35:39.473Z,2.10
2018-01-15T17:38:06.075Z,2.30
2018-01-15T17:40:33.548Z,1.93
2018-01-15T17:43:00.143Z,1.73
2018-01-15T17:45:26.736Z,2.13
2018-01-15T17:47:53.348Z,1.83
2018-01-15T17:50:19.943Z,2.07
2018-01-15T17:52:46.534Z,2.30
2018-01-15T17:55:13.131Z,2.07
2018-01-15T17:57:39.728Z,2.20
2018-01-15T18:00:06.338Z,2.20
2018-01-15T18:02:32.941Z,1.63
2018-01-15T18:04:59.511Z,2.20
2018-01-15T18:07:26.164Z,1.70
2018-01-15T18:09:52.764Z,1.50
2018-01-15T18:12:19.409Z,1.70
2018-01-15T18:14:45.993Z,2.17
2018-01-15T18:17:12.585Z,2.10
2018-01-15T18:19:39.175Z,1.40
2018-01-15T18:22:05.808Z,1.50
2018-01-15T18:24:32.371Z,1.10
2018-01-15T18:26:58.964Z,1.20
2018-01-15T18:29:25.572Z,0.80
2018-01-15T18:31:52.163Z,1.43
2018-01-15T18:34:18.760Z,1.20
2018-01-15T18:36:46.381Z,1.97
2018-01-15T18:39:13.032Z,2.30
2018-01-15T18:41:39.616Z,1.20
2018-01-15T18:44:06.215Z,1.50
2018-01-15T18:46:33.053Z,1.17
2018-01-15T18:48:59.644Z,1.57
2018-01-15T18:51:26.239Z,1.00
2018-01-15T18:53:52.840Z,1.10
2018-01-15T18:56:19.476Z,1.20
2018-01-15T18:58:46.075Z,1.00
2018-01-15T19:01:12.664Z,0.97
2018-01-15T19:03:39.267Z,0.80
2018-01-15T19:06:05.872Z,0.90
2018-01-15T19:08:32.463Z,1.13
2018-01-15T19:10:59.063Z,0.90
2018-01-15T19:13:25.660Z,0.60
2018-01-15T19:15:52.261Z,3.40
2018-01-15T19:18:18.875Z,2.60
2018-01-15T19:20:45.536Z,1.03
2018-01-15T19:23:12.159Z,0.80
2018-01-15T19:25:38.751Z,0.70
2018-01-15T19:28:05.348Z,0.70
2018-01-15T19:30:31.939Z,1.30
2018-01-15T19:32:58.535Z,0.60
2018-01-15T19:35:27.916Z,0.90
2018-01-15T19:37:54.530Z,1.73
2018-01-15T19:40:21.136Z,0.77
2018-01-15T19:42:47.748Z,0.90
2018-01-15T19:45:19.980Z,0.50
2018-01-15T19:47:53.184Z,1.57
2018-01-15T19:50:25.551Z,0.60
2018-01-15T19:52:58.892Z,0.80
2018-01-15T19:55:31.216Z,0.90
2018-01-15T19:58:03.345Z,0.70
2018-01-15T20:00:47.617Z,0.80
2018-01-15T20:03:19.941Z,0.50
2018-01-15T20:06:05.965Z,0.80
2018-01-15T20:08:52.412Z,1.00
2018-01-15T20:11:19.848Z,0.77
2018-01-15T20:13:46.463Z,0.60
2018-01-15T20:16:13.066Z,0.60
2018-01-15T20:18:39.669Z,0.60
2018-01-15T20:21:06.267Z,0.60
2018-01-15T20:23:32.854Z,1.20
2018-01-15T20:25:59.452Z,0.70
2018-01-15T20:28:27.007Z,0.70
2018-01-15T20:30:53.596Z,0.57
2018-01-15T20:33:20.200Z,0.67
2018-01-15T20:35:46.816Z,0.67
2018-01-15T20:38:13.416Z,0.60
2018-01-15T20:40:40.015Z,0.70
2018-01-15T20:43:06.603Z,0.70
2018-01-15T20:45:33.214Z,0.53
2018-01-15T20:47:59.843Z,0.60
2018-01-15T20:50:26.443Z,0.57
2018-01-15T20:52:53.043Z,0.60
2018-01-15T20:55:19.640Z,0.60
2018-01-15T20:57:46.267Z,1.17
2018-01-15T21:00:12.855Z,1.23
2018-01-15T21:02:39.479Z,1.00
2018-01-15T21:05:06.076Z,1.03
2018-01-15T21:07:32.680Z,0.87
2018-01-15T21:09:59.301Z,0.87
2018-01-15T21:12:25.896Z,0.70
2018-01-15T21:14:53.051Z,0.60
2018-01-15T21:17:19.639Z,0.70
2018-01-15T21:19:46.255Z,0.67
2018-01-15T21:22:12.855Z,0.83
2018-01-15T21:24:39.455Z,0.60
2018-01-15T21:27:06.084Z,0.80
2018-01-15T21:29:32.731Z,0.83
2018-01-15T21:31:59.324Z,0.60
2018-01-15T21:34:25.916Z,0.70
2018-01-15T21:36:52.511Z,0.60
2018-01-15T21:39:19.108Z,0.73
2018-01-15T21:41:45.712Z,1.70
2018-01-15T21:44:12.308Z,0.60
2018-01-15T21:46:42.168Z,3.03
2018-01-15T21:49:08.843Z,0.60
2018-01-15T21:51:35.436Z,0.80
2018-01-15T21:54:02.031Z,0.57
2018-01-15T21:56:28.620Z,0.50
2018-01-15T21:58:55.721Z,0.50
2018-01-15T22:01:22.312Z,0.60
2018-01-15T22:03:48.908Z,0.50
2018-01-15T22:06:15.550Z,1.50
2018-01-15T22:08:42.132Z,0.80
2018-01-15T22:11:08.762Z,0.60
2018-01-15T22:13:35.358Z,0.50
2018-01-15T22:16:04.300Z,0.50
2018-01-15T22:18:30.935Z,0.60
2018-01-15T22:20:57.530Z,0.83
2018-01-15T22:23:24.467Z,0.50
2018-01-15T22:25:51.067Z,0.60
2018-01-15T22:28:17.660Z,0.60
2018-01-15T22:30:44.253Z,1.53
2018-01-15T22:33:10.851Z,0.60
2018-01-15T22:35:37.455Z,0.60
2018-01-15T22:38:04.039Z,0.60
2018-01-15T22:40:30.639Z,0.50
2018-01-15T22:42:57.267Z,0.73
2018-01-15T22:45:23.865Z,1.33
2018-01-15T22:47:51.405Z,0.80
2018-01-15T22:50:17.995Z,0.83
2018-01-15T22:52:44.596Z,1.20
2018-01-15T22:55:11.190Z,0.80
2018-01-15T22:57:37.779Z,0.63
2018-01-15T23:00:04.372Z,0.60
2018-01-15T23:02:30.967Z,1.23
2018-01-15T23:04:57.594Z,3.33
2018-01-15T23:07:24.171Z,0.40
2018-01-15T23:09:50.772Z,0.60
2018-01-15T23:12:17.363Z,0.87
2018-01-15T23:14:43.954Z,0.50
2018-01-15T23:17:10.554Z,0.70
2018-01-15T23:19:37.155Z,0.80
2018-01-15T23:22:03.756Z,1.30
2018-01-15T23:24:30.343Z,2.40
2018-01-15T23:26:56.945Z,1.70
2018-01-15T23:29:23.535Z,3.17
2018-01-15T23:31:50.139Z,3.00
2018-01-15T23:34:16.751Z,1.97
2018-01-15T23:36:43.343Z,2.40
2018-01-15T23:39:09.935Z,2.43
2018-01-15T23:41:36.539Z,2.40
2018-01-15T23:44:03.127Z,2.60
2018-01-15T23:46:29.729Z,2.20
2018-01-15T23:48:56.315Z,2.50
2018-01-15T23:51:22.952Z,2.13
2018-01-15T23:53:49.548Z,4.43
2018-01-15T23:56:16.145Z,3.33
2018-01-15T23:58:42.736Z,2.97
